createdAt,value
2023-04-09T00:00:02.820Z,75.93
2023-04-09T00:02:43.162Z,75.62
2023-04-09T00:05:14.469Z,75.40
2023-04-09T00:07:44.828Z,75.35
2023-04-09T00:10:15.654Z,75.45
2023-04-09T00:12:47.464Z,74.87
2023-04-09T00:15:27.959Z,74.97
2023-04-09T00:18:01.814Z,74.71
2023-04-09T00:20:32.600Z,74.42
2023-04-09T00:23:03.834Z,74.64
2023-04-09T00:25:34.324Z,74.53
2023-04-09T00:28:05.376Z,74.76
2023-04-09T00:30:38.760Z,74.74
2023-04-09T00:33:08.869Z,74.38
2023-04-09T00:35:39.135Z,74.44
2023-04-09T00:38:10.449Z,74.40
2023-04-09T00:40:43.701Z,74.58
2023-04-09T00:43:14.277Z,74.43
2023-04-09T00:45:49.608Z,74.75
2023-04-09T00:48:23.151Z,74.95
2023-04-09T00:50:55.314Z,74.95
2023-04-09T00:53:26.740Z,74.69
2023-04-09T00:55:58.431Z,74.80
2023-04-09T00:58:29.725Z,74.63
2023-04-09T01:00:59.800Z,75.03
2023-04-09T01:03:33.297Z,74.68
2023-04-09T01:06:06.843Z,74.76
2023-04-09T01:08:53.420Z,75.03
2023-04-09T01:11:46.701Z,75.10
2023-04-09T01:14:40.962Z,75.17
2023-04-09T01:17:27.708Z,75.27
2023-04-09T01:20:11.094Z,75.39
2023-04-09T01:23:08.261Z,75.28
2023-04-09T01:25:59.990Z,75.45
2023-04-09T01:28:41.000Z,75.73
2023-04-09T01:31:58.114Z,75.38
2023-04-09T01:34:38.514Z,75.23
2023-04-09T01:37:15.945Z,75.03
2023-04-09T01:39:48.171Z,74.83
2023-04-09T01:42:22.488Z,74.77
2023-04-09T01:44:55.330Z,74.33
2023-04-09T01:47:35.502Z,74.69
2023-04-09T01:50:14.414Z,74.23
2023-04-09T01:52:47.518Z,73.73
2023-04-09T01:55:17.778Z,73.33
2023-04-09T01:57:49.201Z,73.00
2023-04-09T02:00:23.001Z,72.50
2023-04-09T02:03:16.579Z,72.83
2023-04-09T02:06:34.814Z,72.57
2023-04-09T02:09:10.233Z,72.49
2023-04-09T02:11:45.520Z,72.81
2023-04-09T02:14:18.841Z,72.42
2023-04-09T02:17:07.493Z,72.47
2023-04-09T02:19:50.345Z,72.43
2023-04-09T02:22:23.856Z,72.75
2023-04-09T02:25:01.866Z,73.23
2023-04-09T02:27:34.879Z,72.85
2023-04-09T02:30:06.296Z,72.93
2023-04-09T02:32:52.287Z,72.66
2023-04-09T02:38:16.784Z,72.24
2023-04-09T02:40:50.004Z,72.62
2023-04-09T02:43:22.219Z,72.39
2023-04-09T02:45:52.534Z,72.44
2023-04-09T02:48:26.996Z,72.56
2023-04-09T02:50:58.081Z,72.67
2023-04-09T02:53:29.868Z,73.02
2023-04-09T02:56:05.999Z,72.97
2023-04-09T02:58:41.338Z,72.69
2023-04-09T03:01:14.424Z,72.65
2023-04-09T03:06:31.238Z,72.26
2023-04-09T03:09:01.680Z,72.02
2023-04-09T03:11:31.780Z,72.03
2023-04-09T03:14:01.976Z,71.99
2023-04-09T03:16:35.904Z,72.05
2023-04-09T03:19:09.115Z,71.73
2023-04-09T03:21:43.185Z,71.79
2023-04-09T03:24:14.224Z,71.69
2023-04-09T03:26:50.025Z,71.68
2023-04-09T03:29:21.073Z,71.60
2023-04-09T03:31:51.049Z,71.44
2023-04-09T03:34:25.092Z,71.08
2023-04-09T03:37:00.246Z,70.81
2023-04-09T03:39:36.059Z,71.07
2023-04-09T03:42:16.480Z,70.97
2023-04-09T03:44:50.134Z,71.00
2023-04-09T03:47:27.978Z,71.15
2023-04-09T03:50:00.000Z,71.32
2023-04-09T03:52:37.530Z,71.88
2023-04-09T03:55:15.198Z,71.52
2023-04-09T03:57:52.465Z,71.51
2023-04-09T04:00:31.907Z,71.87
2023-04-09T04:03:31.573Z,73.17
2023-04-09T04:06:24.761Z,73.56
2023-04-09T04:09:11.106Z,73.08
2023-04-09T04:12:06.085Z,73.17
2023-04-09T04:15:06.333Z,73.01
2023-04-09T04:17:47.594Z,73.12
2023-04-09T04:20:28.050Z,73.05
2023-04-09T04:23:09.500Z,73.34
2023-04-09T04:25:55.280Z,73.22
2023-04-09T04:28:35.826Z,73.35
2023-04-09T04:31:14.984Z,73.99
2023-04-09T04:33:47.242Z,73.35
2023-04-09T04:36:24.972Z,74.30
2023-04-09T04:38:56.979Z,73.15
2023-04-09T04:41:48.554Z,73.54
2023-04-09T04:44:23.533Z,73.39
2023-04-09T04:47:06.553Z,74.09
2023-04-09T04:49:41.838Z,74.46
2023-04-09T04:52:17.985Z,75.02
2023-04-09T04:54:59.647Z,74.77
2023-04-09T04:57:31.203Z,74.38
2023-04-09T05:00:06.179Z,74.20
2023-04-09T05:02:42.003Z,73.84
2023-04-09T05:05:26.289Z,73.61
2023-04-09T05:08:06.060Z,73.75
2023-04-09T05:10:45.093Z,73.65
2023-04-09T05:13:16.505Z,73.65
2023-04-09T05:15:50.515Z,73.56
2023-04-09T05:18:22.175Z,73.69
2023-04-09T05:20:52.486Z,73.97
2023-04-09T05:23:23.987Z,74.21
2023-04-09T05:25:55.034Z,74.28
2023-04-09T05:28:35.287Z,74.51
2023-04-09T05:31:16.932Z,74.81
2023-04-09T05:33:55.424Z,74.82
2023-04-09T05:36:35.812Z,74.78
2023-04-09T05:39:06.799Z,74.96
2023-04-09T05:41:39.396Z,75.01
2023-04-09T05:44:29.849Z,75.05
2023-04-09T05:47:17.768Z,75.09
2023-04-09T05:50:26.287Z,75.39
2023-04-09T05:52:59.998Z,75.54
2023-04-09T05:55:37.702Z,75.59
2023-04-09T05:58:08.531Z,75.63
2023-04-09T06:00:39.870Z,75.63
2023-04-09T06:03:12.436Z,75.84
2023-04-09T06:05:43.532Z,75.93
2023-04-09T06:08:20.996Z,76.09
2023-04-09T06:11:18.549Z,76.15
2023-04-09T06:13:48.990Z,76.00
2023-04-09T06:16:19.748Z,75.91
2023-04-09T06:18:53.211Z,75.97
2023-04-09T06:21:23.833Z,75.92
2023-04-09T06:24:00.628Z,76.05
2023-04-09T06:26:31.029Z,76.13
2023-04-09T06:29:00.998Z,76.12
2023-04-09T06:31:41.752Z,76.16
2023-04-09T06:34:17.641Z,76.26
2023-04-09T06:36:50.940Z,76.27
2023-04-09T06:39:21.884Z,76.25
2023-04-09T06:41:51.789Z,76.31
2023-04-09T06:44:39.884Z,76.46
2023-04-09T06:47:10.528Z,76.84
2023-04-09T06:49:40.564Z,76.99
2023-04-09T06:52:11.765Z,76.98
2023-04-09T06:54:42.592Z,77.12
2023-04-09T06:57:13.448Z,77.11
2023-04-09T06:59:44.216Z,77.19
2023-04-09T07:02:14.485Z,77.20
2023-04-09T07:04:45.401Z,77.31
2023-04-09T07:07:17.081Z,77.36
2023-04-09T07:09:48.029Z,77.49
2023-04-09T07:12:32.149Z,77.58
2023-04-09T07:15:05.202Z,77.65
2023-04-09T07:17:37.650Z,77.56
2023-04-09T07:20:08.290Z,77.58
2023-04-09T07:22:38.389Z,77.59
2023-04-09T07:25:09.333Z,77.52
2023-04-09T07:27:40.378Z,77.45
2023-04-09T07:30:12.260Z,77.49
2023-04-09T07:32:42.621Z,77.36
2023-04-09T07:35:12.847Z,77.39
2023-04-09T07:37:43.276Z,77.39
2023-04-09T07:40:13.591Z,77.38
2023-04-09T07:42:45.432Z,77.38
2023-04-09T07:45:16.382Z,77.34
2023-04-09T07:47:47.751Z,77.35
2023-04-09T07:50:18.094Z,77.23
2023-04-09T07:52:48.720Z,77.23
2023-04-09T07:55:19.199Z,77.32
2023-04-09T07:57:49.787Z,77.32
2023-04-09T08:00:22.681Z,77.27
2023-04-09T08:02:53.682Z,77.25
2023-04-09T08:05:24.952Z,77.31
2023-04-09T08:07:55.160Z,77.48
2023-04-09T08:10:25.172Z,77.66
2023-04-09T08:12:55.555Z,77.79
2023-04-09T08:15:25.633Z,77.97
2023-04-09T08:17:56.578Z,77.96
2023-04-09T08:20:28.440Z,78.03
2023-04-09T08:22:59.037Z,78.10
2023-04-09T08:25:29.457Z,77.96
2023-04-09T08:28:00.460Z,77.93
2023-04-09T08:30:32.052Z,77.93
2023-04-09T08:33:04.382Z,77.95
2023-04-09T08:35:35.116Z,77.99
2023-04-09T08:38:06.094Z,77.87
2023-04-09T08:40:40.564Z,77.97
2023-04-09T08:43:15.393Z,78.02
2023-04-09T08:45:47.220Z,77.94
2023-04-09T08:48:18.623Z,77.79
2023-04-09T08:50:49.800Z,77.86
2023-04-09T08:53:21.682Z,77.93
2023-04-09T08:55:52.851Z,77.93
2023-04-09T08:58:23.018Z,77.94
2023-04-09T09:00:53.048Z,78.14
2023-04-09T09:03:23.461Z,78.24
2023-04-09T09:05:53.785Z,78.26
2023-04-09T09:08:28.273Z,78.48
2023-04-09T09:10:58.852Z,78.57
2023-04-09T09:13:29.909Z,78.89
2023-04-09T09:16:19.106Z,78.95
2023-04-09T09:18:50.215Z,79.03
2023-04-09T09:21:22.096Z,78.96
2023-04-09T09:23:52.564Z,78.82
2023-04-09T09:26:42.174Z,78.81
2023-04-09T09:29:12.718Z,78.72
2023-04-09T09:31:53.981Z,78.75
2023-04-09T09:34:28.093Z,78.92
2023-04-09T09:36:59.044Z,78.78
2023-04-09T09:39:48.154Z,78.84
2023-04-09T09:42:19.734Z,78.83
2023-04-09T09:44:51.244Z,78.88
2023-04-09T09:47:22.304Z,78.85
2023-04-09T09:49:54.156Z,78.77
2023-04-09T09:52:32.786Z,78.66
2023-04-09T09:55:06.779Z,78.85
2023-04-09T09:57:43.988Z,78.72
2023-04-09T10:00:18.644Z,78.66
2023-04-09T10:03:00.061Z,78.71
2023-04-09T10:05:32.345Z,78.53
2023-04-09T10:08:03.498Z,78.57
2023-04-09T10:10:36.340Z,78.54
2023-04-09T10:13:11.585Z,78.41
2023-04-09T10:15:44.612Z,78.36
2023-04-09T10:18:15.225Z,78.24
2023-04-09T10:21:22.719Z,78.15
2023-04-09T10:23:53.872Z,77.89
2023-04-09T10:26:32.216Z,77.77
2023-04-09T10:29:18.397Z,77.54
2023-04-09T10:32:06.571Z,77.11
2023-04-09T10:34:42.032Z,76.87
2023-04-09T10:37:26.542Z,76.41
2023-04-09T10:39:58.566Z,75.86
2023-04-09T10:42:35.371Z,75.50
2023-04-09T10:45:11.118Z,75.33
2023-04-09T10:47:42.432Z,75.15
2023-04-09T10:50:24.020Z,69.37
2023-04-09T10:52:54.786Z,58.24
2023-04-09T10:55:47.032Z,54.12
2023-04-09T10:58:18.106Z,51.24
2023-04-09T11:00:53.918Z,51.72
2023-04-09T11:03:35.350Z,51.93
2023-04-09T11:06:11.379Z,55.03
2023-04-09T11:08:43.713Z,57.90
2023-04-09T11:11:15.384Z,60.28
2023-04-09T11:13:46.543Z,60.36
2023-04-09T11:16:24.667Z,59.91
2023-04-09T11:19:00.510Z,60.72
2023-04-09T11:21:31.987Z,59.79
2023-04-09T11:24:03.128Z,59.10
2023-04-09T11:26:40.060Z,60.28
2023-04-09T11:29:12.177Z,59.90
2023-04-09T11:31:46.681Z,58.32
2023-04-09T11:34:17.877Z,58.12
2023-04-09T11:36:51.440Z,59.22
2023-04-09T11:39:24.941Z,59.36
2023-04-09T11:41:57.450Z,58.22
2023-04-09T11:44:29.014Z,58.41
2023-04-09T11:47:01.707Z,58.38
2023-04-09T11:49:33.848Z,57.68
2023-04-09T11:52:06.337Z,58.36
2023-04-09T11:54:38.469Z,57.87
2023-04-09T11:57:09.718Z,57.76
2023-04-09T11:59:41.134Z,57.05
2023-04-09T12:02:37.710Z,56.99
2023-04-09T12:05:09.314Z,56.50
2023-04-09T12:07:44.231Z,56.84
2023-04-09T12:10:22.446Z,56.48
2023-04-09T12:12:53.270Z,56.28
2023-04-09T12:15:26.802Z,57.57
2023-04-09T12:17:57.998Z,58.01
2023-04-09T12:20:41.623Z,58.43
2023-04-09T12:23:13.701Z,57.52
2023-04-09T12:25:49.696Z,56.70
2023-04-09T12:28:20.987Z,56.13
2023-04-09T12:30:54.109Z,57.33
2023-04-09T12:36:23.536Z,56.23
2023-04-09T12:38:55.115Z,57.09
2023-04-09T12:41:27.070Z,55.81
2023-04-09T12:43:58.910Z,57.77
2023-04-09T12:46:29.808Z,59.76
2023-04-09T12:49:00.933Z,60.46
2023-04-09T12:51:34.604Z,61.17
2023-04-09T12:54:07.068Z,61.27
2023-04-09T12:56:38.757Z,60.75
2023-04-09T12:59:12.342Z,62.14
2023-04-09T13:01:45.565Z,62.23
2023-04-09T13:04:17.258Z,61.68
2023-04-09T13:06:47.674Z,60.64
2023-04-09T13:09:20.095Z,59.83
2023-04-09T13:11:51.354Z,59.42
2023-04-09T13:14:23.125Z,59.32
2023-04-09T13:16:54.083Z,58.76
2023-04-09T13:19:25.618Z,58.74
2023-04-09T13:21:58.231Z,58.44
2023-04-09T13:24:28.798Z,58.21
2023-04-09T13:27:00.120Z,58.81
2023-04-09T13:29:32.374Z,58.73
2023-04-09T13:32:08.376Z,57.11
2023-04-09T13:34:38.749Z,57.82
2023-04-09T13:37:11.281Z,58.50
2023-04-09T13:39:41.302Z,58.72
2023-04-09T13:42:14.384Z,57.59
2023-04-09T13:44:47.303Z,56.50
2023-04-09T13:47:19.974Z,58.26
2023-04-09T13:49:55.995Z,58.49
2023-04-09T13:52:29.644Z,57.83
2023-04-09T13:55:04.521Z,57.94
2023-04-09T13:57:35.475Z,58.12
2023-04-09T14:00:07.182Z,58.44
2023-04-09T14:02:38.902Z,58.41
2023-04-09T14:05:10.250Z,59.16
2023-04-09T14:07:41.238Z,58.35
2023-04-09T14:10:14.200Z,58.32
2023-04-09T14:12:44.728Z,58.16
2023-04-09T14:15:16.252Z,58.76
2023-04-09T14:17:47.160Z,57.92
2023-04-09T14:20:17.780Z,58.27
2023-04-09T14:22:51.996Z,58.47
2023-04-09T14:25:23.664Z,56.52
2023-04-09T14:27:54.841Z,57.48
2023-04-09T14:30:26.582Z,57.09
2023-04-09T14:32:57.231Z,57.89
2023-04-09T14:35:28.328Z,56.65
2023-04-09T14:37:59.826Z,56.91
2023-04-09T14:40:30.800Z,57.24
2023-04-09T14:43:03.812Z,56.56
2023-04-09T14:45:35.090Z,56.92
2023-04-09T14:48:07.552Z,57.42
2023-04-09T14:50:39.578Z,57.05
2023-04-09T14:53:11.062Z,56.61
2023-04-09T14:55:41.360Z,57.42
2023-04-09T14:58:12.370Z,57.59
2023-04-09T15:00:43.416Z,56.67
2023-04-09T15:03:13.998Z,56.89
2023-04-09T15:05:45.255Z,57.33
2023-04-09T15:08:17.050Z,57.53
2023-04-09T15:10:48.159Z,57.81
2023-04-09T15:13:19.510Z,57.71
2023-04-09T15:15:56.952Z,58.47
2023-04-09T15:18:27.307Z,57.40
2023-04-09T15:20:57.825Z,58.49
2023-04-09T15:23:30.934Z,58.15
2023-04-09T15:26:01.120Z,58.44
2023-04-09T15:28:32.373Z,58.39
2023-04-09T15:32:01.306Z,58.54
2023-04-09T15:34:32.569Z,58.41
2023-04-09T15:37:03.722Z,58.65
2023-04-09T15:39:35.389Z,58.60
2023-04-09T15:42:08.014Z,58.39
2023-04-09T15:44:42.201Z,58.51
2023-04-09T15:47:14.650Z,58.64
2023-04-09T15:49:47.509Z,60.24
2023-04-09T15:52:17.922Z,59.67
2023-04-09T15:54:47.940Z,60.05
2023-04-09T15:57:19.003Z,59.11
2023-04-09T15:59:52.597Z,59.42
2023-04-09T16:02:25.814Z,60.49
2023-04-09T16:04:56.356Z,59.69
2023-04-09T16:07:27.728Z,60.79
2023-04-09T16:10:00.560Z,60.00
2023-04-09T16:12:32.726Z,59.33
2023-04-09T16:15:03.815Z,59.84
2023-04-09T16:17:39.243Z,60.39
2023-04-09T16:20:11.502Z,60.38
2023-04-09T16:22:42.661Z,60.11
2023-04-09T16:25:13.306Z,60.82
2023-04-09T16:27:45.154Z,60.41
2023-04-09T16:30:16.173Z,60.76
2023-04-09T16:32:48.007Z,61.13
2023-04-09T16:35:19.599Z,60.95
2023-04-09T16:37:50.384Z,61.56
2023-04-09T16:40:25.585Z,60.92
2023-04-09T16:42:57.539Z,61.36
2023-04-09T16:45:27.621Z,60.27
2023-04-09T16:47:58.503Z,60.90
2023-04-09T16:50:28.629Z,60.68
2023-04-09T16:53:02.202Z,62.97
2023-04-09T16:55:34.624Z,62.43
2023-04-09T16:58:05.023Z,62.46
2023-04-09T17:00:37.601Z,62.71
2023-04-09T17:03:08.840Z,63.03
2023-04-09T17:05:42.039Z,62.24
2023-04-09T17:08:12.494Z,61.47
2023-04-09T17:10:47.294Z,62.79
2023-04-09T17:13:20.312Z,62.23
2023-04-09T17:15:53.246Z,62.71
2023-04-09T17:18:24.437Z,63.28
2023-04-09T17:20:54.894Z,62.43
2023-04-09T17:23:27.106Z,62.59
2023-04-09T17:26:01.074Z,63.66
2023-04-09T17:28:32.193Z,62.30
2023-04-09T17:31:03.051Z,62.91
2023-04-09T17:33:57.941Z,61.84
2023-04-09T17:36:29.996Z,62.78
2023-04-09T17:39:00.023Z,62.33
2023-04-09T17:41:30.175Z,63.04
2023-04-09T17:44:01.686Z,63.26
2023-04-09T17:46:32.455Z,62.45
2023-04-09T17:49:02.819Z,62.72
2023-04-09T17:51:36.307Z,61.73
2023-04-09T17:54:07.578Z,62.28
2023-04-09T17:56:44.110Z,63.17
2023-04-09T17:59:16.032Z,62.66
2023-04-09T18:01:46.655Z,62.63
2023-04-09T18:04:17.566Z,63.81
2023-04-09T18:06:47.881Z,64.17
2023-04-09T18:09:18.015Z,64.07
2023-04-09T18:11:49.972Z,63.04
2023-04-09T18:14:21.222Z,64.06
2023-04-09T18:16:51.490Z,65.66
2023-04-09T18:19:21.515Z,65.53
2023-04-09T18:21:52.033Z,65.93
2023-04-09T18:24:22.365Z,65.30
2023-04-09T18:26:53.975Z,66.44
2023-04-09T18:29:25.608Z,66.04
2023-04-09T18:31:58.811Z,65.98
2023-04-09T18:34:29.337Z,65.44
2023-04-09T18:37:00.184Z,65.33
2023-04-09T18:39:32.269Z,65.65
2023-04-09T18:42:04.484Z,66.01
2023-04-09T18:44:39.482Z,66.04
2023-04-09T18:47:10.856Z,66.52
2023-04-09T18:49:42.005Z,66.97
2023-04-09T18:52:15.317Z,66.94
2023-04-09T18:54:49.136Z,66.87
2023-04-09T18:57:19.399Z,66.58
2023-04-09T18:59:49.721Z,66.68
2023-04-09T19:02:26.415Z,67.66
2023-04-09T19:05:00.028Z,67.59
2023-04-09T19:07:35.548Z,65.97
2023-04-09T19:10:05.950Z,67.16
2023-04-09T19:12:38.185Z,67.11
2023-04-09T19:15:09.984Z,68.53
2023-04-09T19:17:40.236Z,67.79
2023-04-09T19:20:11.608Z,66.66
2023-04-09T19:22:48.654Z,66.89
2023-04-09T19:25:19.785Z,67.34
2023-04-09T19:27:50.202Z,68.10
2023-04-09T19:30:20.372Z,68.85
2023-04-09T19:32:55.723Z,68.90
2023-04-09T19:35:27.662Z,69.15
2023-04-09T19:38:01.126Z,68.87
2023-04-09T19:40:33.796Z,68.73
2023-04-09T19:43:05.672Z,68.76
2023-04-09T19:45:40.272Z,68.29
2023-04-09T19:48:12.110Z,68.44
2023-04-09T19:50:46.428Z,69.11
2023-04-09T19:53:21.853Z,69.00
2023-04-09T19:55:58.432Z,69.70
2023-04-09T19:58:36.021Z,69.54
2023-04-09T20:01:17.865Z,70.05
2023-04-09T20:03:48.647Z,70.42
2023-04-09T20:06:19.635Z,70.42
2023-04-09T20:08:53.949Z,71.23
2023-04-09T20:11:26.226Z,71.42
2023-04-09T20:13:58.171Z,71.27
2023-04-09T20:16:30.072Z,71.54
2023-04-09T20:19:03.869Z,71.37
2023-04-09T20:21:34.144Z,71.50
2023-04-09T20:24:05.920Z,72.21
2023-04-09T20:26:36.465Z,71.28
2023-04-09T20:29:06.834Z,71.44
2023-04-09T20:31:40.760Z,71.45
2023-04-09T20:34:12.429Z,71.51
2023-04-09T20:36:46.429Z,71.53
2023-04-09T20:39:16.977Z,71.53
2023-04-09T20:41:48.852Z,71.64
2023-04-09T20:44:20.275Z,71.30
2023-04-09T20:53:01.147Z,71.86
2023-04-09T20:55:31.889Z,71.97
2023-04-09T20:58:03.345Z,72.73
2023-04-09T21:00:34.904Z,72.25
2023-04-09T21:03:05.437Z,72.25
2023-04-09T21:05:38.309Z,72.79
2023-04-09T21:08:16.786Z,73.32
2023-04-09T21:10:47.110Z,73.54
2023-04-09T21:13:20.425Z,73.35
2023-04-09T21:15:53.184Z,73.92
2023-04-09T21:18:25.252Z,74.00
2023-04-09T21:20:57.112Z,74.05
2023-04-09T21:23:28.496Z,73.75
2023-04-09T21:26:00.765Z,73.89
2023-04-09T21:28:35.161Z,74.59
2023-04-09T21:31:09.066Z,74.34
2023-04-09T21:33:40.934Z,74.33
2023-04-09T21:36:15.217Z,74.63
2023-04-09T21:38:48.438Z,74.14
2023-04-09T21:41:29.227Z,74.00
2023-04-09T21:44:00.277Z,74.54
2023-04-09T21:46:32.551Z,74.53
2023-04-09T21:49:04.283Z,74.81
2023-04-09T21:51:35.821Z,73.66
2023-04-09T21:54:11.676Z,74.23
2023-04-09T21:56:42.097Z,74.02
2023-04-09T21:59:12.802Z,73.83
2023-04-09T22:01:47.555Z,74.47
2023-04-09T22:04:23.366Z,74.49
2023-04-09T22:06:57.651Z,74.27
2023-04-09T22:09:29.973Z,74.04
2023-04-09T22:12:02.326Z,74.16
2023-04-09T22:14:34.576Z,74.47
2023-04-09T22:17:08.110Z,73.73
2023-04-09T22:19:43.162Z,73.98
2023-04-09T22:22:17.995Z,73.58
2023-04-09T22:24:54.166Z,73.60
2023-04-09T22:27:25.958Z,74.16
2023-04-09T22:30:02.140Z,74.43
2023-04-09T22:32:37.428Z,74.38
2023-04-09T22:35:09.406Z,74.41
2023-04-09T22:37:40.592Z,74.42
2023-04-09T22:40:18.551Z,73.92
2023-04-09T22:42:53.434Z,73.99
2023-04-09T22:45:23.910Z,73.90
2023-04-09T22:47:56.568Z,73.94
2023-04-09T22:50:33.689Z,73.98
2023-04-09T22:53:08.394Z,74.12
2023-04-09T22:55:40.595Z,74.11
2023-04-09T22:58:12.140Z,74.02
2023-04-09T23:00:44.294Z,73.99
2023-04-09T23:03:19.944Z,74.16
2023-04-09T23:05:51.993Z,74.14
2023-04-09T23:08:26.118Z,74.09
2023-04-09T23:10:59.302Z,74.18
2023-04-09T23:13:32.912Z,74.25
2023-04-09T23:16:09.184Z,74.37
2023-04-09T23:18:40.911Z,74.45
2023-04-09T23:21:21.043Z,74.59
2023-04-09T23:23:52.869Z,74.53
2023-04-09T23:26:25.221Z,74.53
2023-04-09T23:29:00.344Z,74.61
2023-04-09T23:31:35.606Z,74.87
2023-04-09T23:34:08.021Z,74.95
2023-04-09T23:36:39.544Z,74.99
2023-04-09T23:39:11.198Z,75.17
2023-04-09T23:41:45.657Z,75.19
2023-04-09T23:44:18.851Z,75.58
2023-04-09T23:46:52.042Z,75.54
2023-04-09T23:49:24.996Z,75.65
2023-04-09T23:51:57.952Z,75.49
2023-04-09T23:54:34.825Z,75.65
2023-04-09T23:57:09.786Z,75.73
2023-04-09T23:59:40.543Z,75.67
